createdAt,value
2023-01-12T00:01:50.537Z,21.17
2023-01-12T00:04:17.709Z,26.13
2023-01-12T00:06:44.788Z,26.52
2023-01-12T00:09:11.456Z,25.73
2023-01-12T00:11:39.738Z,24.10
2023-01-12T00:14:08.069Z,26.98
2023-01-12T00:16:35.685Z,21.45
2023-01-12T00:19:23.025Z,19.08
2023-01-12T00:21:59.539Z,29.95
2023-01-12T00:24:37.572Z,25.00
2023-01-12T00:27:10.543Z,23.35
2023-01-12T00:29:37.746Z,19.92
2023-01-12T00:32:05.670Z,32.20
2023-01-12T00:34:32.895Z,18.15
2023-01-12T00:37:04.003Z,21.05
2023-01-12T00:39:30.687Z,20.17
2023-01-12T00:42:15.857Z,31.80
2023-01-12T00:45:01.328Z,26.50
2023-01-12T00:47:28.008Z,19.33
2023-01-12T00:49:54.668Z,23.88
2023-01-12T00:52:30.340Z,22.95
2023-01-12T00:54:58.975Z,24.00
2023-01-12T00:57:25.763Z,26.00
2023-01-12T00:59:55.502Z,23.73
2023-01-12T01:02:23.113Z,25.13
2023-01-12T01:04:50.613Z,25.63
2023-01-12T01:07:18.353Z,28.30
2023-01-12T01:09:45.114Z,32.42
2023-01-12T01:12:11.993Z,33.13
2023-01-12T01:14:38.884Z,31.48
2023-01-12T01:17:06.057Z,24.13
2023-01-12T01:19:32.748Z,24.95
2023-01-12T01:21:59.480Z,24.35
2023-01-12T01:24:26.241Z,22.27
2023-01-12T01:26:52.890Z,21.13
2023-01-12T01:29:19.823Z,16.88
2023-01-12T01:31:47.735Z,19.17
2023-01-12T01:34:14.925Z,27.33
2023-01-12T01:36:41.948Z,22.63
2023-01-12T01:39:08.726Z,22.80
2023-01-12T01:41:35.629Z,22.95
2023-01-12T01:44:26.515Z,19.30
2023-01-12T01:46:57.842Z,19.95
2023-01-12T01:49:44.994Z,15.52
2023-01-12T01:52:25.687Z,21.35
2023-01-12T01:54:58.404Z,20.13
2023-01-12T01:57:29.967Z,23.58
2023-01-12T01:59:58.421Z,23.67
2023-01-12T02:02:26.328Z,25.60
2023-01-12T02:04:55.367Z,15.40
2023-01-12T02:07:22.088Z,16.33
2023-01-12T02:09:48.888Z,20.05
2023-01-12T02:12:34.026Z,14.10
2023-01-12T02:15:19.555Z,31.27
2023-01-12T02:18:10.761Z,23.42
2023-01-12T02:20:52.682Z,22.75
2023-01-12T02:23:22.112Z,19.08
2023-01-12T02:26:06.776Z,27.42
2023-01-12T02:28:39.324Z,23.90
2023-01-12T02:31:23.061Z,21.23
2023-01-12T02:34:22.425Z,25.85
2023-01-12T02:37:14.783Z,24.70
2023-01-12T02:39:59.641Z,21.70
2023-01-12T02:42:44.008Z,21.60
2023-01-12T02:45:31.490Z,21.55
2023-01-12T02:48:03.903Z,16.50
2023-01-12T02:51:06.066Z,16.92
2023-01-12T02:53:43.275Z,18.95
2023-01-12T02:56:13.650Z,16.08
2023-01-12T02:58:46.335Z,14.85
2023-01-12T03:01:15.478Z,10.15
2023-01-12T03:03:42.812Z,12.95
2023-01-12T03:06:10.096Z,10.50
2023-01-12T03:08:40.030Z,17.45
2023-01-12T03:11:12.364Z,18.45
2023-01-12T03:13:46.723Z,13.23
2023-01-12T03:16:18.010Z,12.32
2023-01-12T03:18:54.532Z,11.68
2023-01-12T03:21:50.186Z,5.68
2023-01-12T03:24:21.634Z,9.77
2023-01-12T03:29:22.894Z,7.47
2023-01-12T03:31:49.619Z,3.72
2023-01-12T03:34:16.345Z,7.07
2023-01-12T03:37:02.526Z,4.82
2023-01-12T03:39:55.413Z,6.15
2023-01-12T03:42:29.885Z,6.55
2023-01-12T03:45:22.439Z,3.30
2023-01-12T03:47:55.442Z,5.28
2023-01-12T03:50:27.355Z,3.40
2023-01-12T03:52:56.599Z,5.57
2023-01-12T03:55:25.001Z,5.43
2023-01-12T03:57:53.495Z,2.75
2023-01-12T04:00:22.598Z,0.65
2023-01-12T04:02:49.256Z,3.45
2023-01-12T04:05:16.788Z,2.75
2023-01-12T04:07:43.499Z,1.70
2023-01-12T04:10:10.589Z,2.88
2023-01-12T04:12:37.242Z,2.40
2023-01-12T04:15:04.366Z,3.75
2023-01-12T04:17:31.089Z,1.40
2023-01-12T04:19:57.719Z,2.45
2023-01-12T04:22:43.306Z,6.47
2023-01-12T04:25:15.815Z,1.67
2023-01-12T04:27:47.824Z,1.67
2023-01-12T04:30:16.975Z,5.28
2023-01-12T04:32:44.590Z,0.98
2023-01-12T04:35:12.286Z,1.85
2023-01-12T04:37:40.050Z,5.88
2023-01-12T04:40:08.344Z,4.25
2023-01-12T04:42:55.280Z,3.35
2023-01-12T04:45:22.209Z,4.40
2023-01-12T04:47:48.946Z,2.38
2023-01-12T04:50:15.914Z,2.35
2023-01-12T04:52:42.716Z,3.55
2023-01-12T04:55:09.561Z,2.67
2023-01-12T04:57:36.237Z,1.48
2023-01-12T05:00:05.111Z,1.98
2023-01-12T05:02:31.883Z,0.93
2023-01-12T05:04:58.542Z,3.15
2023-01-12T05:07:25.183Z,1.55
2023-01-12T05:10:27.185Z,0.93
2023-01-12T05:12:53.845Z,3.67
2023-01-12T05:15:20.498Z,2.95
2023-01-12T05:17:47.170Z,3.78
2023-01-12T05:20:13.971Z,6.65
2023-01-12T05:22:40.653Z,2.83
2023-01-12T05:25:07.868Z,9.93
2023-01-12T05:27:34.519Z,5.40
2023-01-12T05:30:01.403Z,7.32
2023-01-12T05:32:28.122Z,4.95
2023-01-12T05:34:54.755Z,6.43
2023-01-12T05:37:21.494Z,6.13
2023-01-12T05:39:48.117Z,6.90
2023-01-12T05:42:33.561Z,5.95
2023-01-12T05:45:00.201Z,11.10
2023-01-12T05:47:26.843Z,5.38
2023-01-12T05:49:53.548Z,6.97
2023-01-12T05:52:20.224Z,13.05
2023-01-12T05:54:46.908Z,7.28
2023-01-12T05:57:13.591Z,7.25
2023-01-12T05:59:40.220Z,9.65
2023-01-12T06:02:06.916Z,8.57
2023-01-12T06:04:33.666Z,3.38
2023-01-12T06:07:00.389Z,4.68
2023-01-12T06:09:27.788Z,9.60
2023-01-12T06:12:12.825Z,8.65
2023-01-12T06:14:39.478Z,7.78
2023-01-12T06:17:06.169Z,9.40
2023-01-12T06:19:32.898Z,5.95
2023-01-12T06:21:59.649Z,2.30
2023-01-12T06:24:28.264Z,5.38
2023-01-12T06:26:55.313Z,6.90
2023-01-12T06:29:21.972Z,8.50
2023-01-12T06:31:48.663Z,5.60
2023-01-12T06:34:15.398Z,7.65
2023-01-12T06:36:42.370Z,4.60
2023-01-12T06:39:09.222Z,7.10
2023-01-12T06:41:54.620Z,3.10
2023-01-12T06:44:21.271Z,4.97
2023-01-12T06:46:48.377Z,6.40
2023-01-12T06:49:16.760Z,9.32
2023-01-12T06:51:43.919Z,5.30
2023-01-12T06:54:10.603Z,5.80
2023-01-12T06:56:37.250Z,8.85
2023-01-12T06:59:03.901Z,6.03
2023-01-12T07:01:30.652Z,4.63
2023-01-12T07:03:57.545Z,3.53
2023-01-12T07:06:24.214Z,5.97
2023-01-12T07:08:50.869Z,3.20
2023-01-12T07:11:17.519Z,4.20
2023-01-12T07:13:44.214Z,12.23
2023-01-12T07:16:11.190Z,5.10
2023-01-12T07:18:37.919Z,1.73
2023-01-12T07:21:06.404Z,5.03
2023-01-12T07:23:33.171Z,3.00
2023-01-12T07:26:00.038Z,6.53
2023-01-12T07:28:27.099Z,5.00
2023-01-12T07:31:00.440Z,3.60
2023-01-12T07:33:27.127Z,6.68
2023-01-12T07:35:56.946Z,5.72
2023-01-12T07:38:23.762Z,5.80
2023-01-12T07:40:50.433Z,3.58
2023-01-12T07:43:19.140Z,4.22
2023-01-12T07:45:46.620Z,3.05
2023-01-12T07:48:13.356Z,3.78
2023-01-12T07:50:39.991Z,6.78
2023-01-12T07:53:06.663Z,3.20
2023-01-12T07:55:33.383Z,6.20
2023-01-12T07:58:03.247Z,3.05
2023-01-12T08:00:31.138Z,5.45
2023-01-12T08:03:08.315Z,4.05
2023-01-12T08:05:36.102Z,3.17
2023-01-12T08:08:03.769Z,5.13
2023-01-12T08:10:30.982Z,5.03
2023-01-12T08:12:57.981Z,9.95
2023-01-12T08:15:26.025Z,5.97
2023-01-12T08:18:01.955Z,7.07
2023-01-12T08:20:33.289Z,10.98
2023-01-12T08:23:08.115Z,11.52
2023-01-12T08:25:44.469Z,4.68
2023-01-12T08:28:19.051Z,5.43
2023-01-12T08:30:48.490Z,8.48
2023-01-12T08:33:15.926Z,11.52
2023-01-12T08:35:43.787Z,4.88
2023-01-12T08:38:10.689Z,7.38
2023-01-12T08:40:55.954Z,7.18
2023-01-12T08:43:41.274Z,7.93
2023-01-12T08:46:08.181Z,11.75
2023-01-12T08:48:36.925Z,13.13
2023-01-12T08:51:08.426Z,7.43
2023-01-12T08:56:02.302Z,4.68
2023-01-12T08:58:28.966Z,7.78
2023-01-12T09:00:55.858Z,7.72
2023-01-12T09:03:22.644Z,6.13
2023-01-12T09:05:49.379Z,5.63
2023-01-12T09:08:16.046Z,5.63
2023-01-12T09:10:42.717Z,17.55
2023-01-12T09:13:11.833Z,7.82
2023-01-12T09:15:38.615Z,8.23
2023-01-12T09:18:05.322Z,14.25
2023-01-12T09:20:33.525Z,13.20
2023-01-12T09:23:03.857Z,6.50
2023-01-12T09:25:30.532Z,9.40
2023-01-12T09:27:57.198Z,8.07
2023-01-12T09:30:23.853Z,8.05
2023-01-12T09:32:50.518Z,6.85
2023-01-12T09:35:19.852Z,9.18
2023-01-12T09:37:46.508Z,8.52
2023-01-12T09:40:15.141Z,9.27
2023-01-12T09:43:07.363Z,8.32
2023-01-12T09:45:53.064Z,5.35
2023-01-12T09:48:23.196Z,7.95
2023-01-12T09:51:09.348Z,7.15
2023-01-12T09:53:39.857Z,6.50
2023-01-12T09:56:34.817Z,5.13
2023-01-12T09:59:22.776Z,6.10
2023-01-12T10:01:53.133Z,8.07
2023-01-12T10:04:20.506Z,12.55
2023-01-12T10:06:47.265Z,9.65
2023-01-12T10:09:19.539Z,4.63
2023-01-12T10:12:08.787Z,4.22
2023-01-12T10:15:12.200Z,10.85
2023-01-12T10:17:54.134Z,11.75
2023-01-12T10:20:42.451Z,9.65
2023-01-12T10:23:09.122Z,9.48
2023-01-12T10:25:43.671Z,9.70
2023-01-12T10:28:24.151Z,8.70
2023-01-12T10:30:51.695Z,12.32
2023-01-12T10:33:26.901Z,7.03
2023-01-12T10:36:08.721Z,8.77
2023-01-12T10:38:39.256Z,15.43
2023-01-12T10:41:17.863Z,9.53
2023-01-12T10:43:52.661Z,15.13
2023-01-12T10:46:24.355Z,12.45
2023-01-12T10:48:56.092Z,35.70
2023-01-12T10:51:35.997Z,15.55
2023-01-12T10:54:37.270Z,13.32
2023-01-12T10:57:16.754Z,15.45
2023-01-12T10:59:54.811Z,10.35
2023-01-12T11:02:24.138Z,12.52
2023-01-12T11:04:52.932Z,17.77
2023-01-12T11:07:26.605Z,11.20
2023-01-12T11:09:54.718Z,14.30
2023-01-12T11:12:40.161Z,10.90
2023-01-12T11:15:09.816Z,12.75
2023-01-12T11:17:43.557Z,10.15
2023-01-12T11:20:22.600Z,12.88
2023-01-12T11:22:54.645Z,9.13
2023-01-12T11:25:25.773Z,13.02
2023-01-12T11:28:02.071Z,14.50
2023-01-12T11:30:52.303Z,12.40
2023-01-12T11:33:43.452Z,16.67
2023-01-12T11:36:17.563Z,23.08
2023-01-12T11:38:45.638Z,16.30
2023-01-12T11:41:35.390Z,13.23
2023-01-12T11:44:19.398Z,12.07
2023-01-12T11:47:07.827Z,7.18
2023-01-12T11:50:02.703Z,10.88
2023-01-12T11:52:29.870Z,9.98
2023-01-12T11:54:56.752Z,11.85
2023-01-12T11:57:45.640Z,7.25
2023-01-12T12:00:36.528Z,14.00
2023-01-12T12:03:38.820Z,9.50
2023-01-12T12:06:30.630Z,6.72
2023-01-12T12:11:45.409Z,10.90
2023-01-12T12:14:45.996Z,12.57
2023-01-12T12:17:22.196Z,10.07
2023-01-12T12:20:07.259Z,10.93
2023-01-12T12:22:48.668Z,10.38
2023-01-12T12:25:23.810Z,9.90
2023-01-12T12:28:03.013Z,10.23
2023-01-12T12:30:44.985Z,15.32
2023-01-12T12:33:32.787Z,12.23
2023-01-12T12:36:10.896Z,10.52
2023-01-12T12:39:26.678Z,10.50
2023-01-12T12:42:53.781Z,9.35
2023-01-12T12:45:32.869Z,6.30
2023-01-12T12:48:34.395Z,11.23
2023-01-12T12:51:13.311Z,10.82
2023-01-12T12:53:42.011Z,9.68
2023-01-12T12:56:15.071Z,9.95
2023-01-12T12:58:44.251Z,14.10
2023-01-12T13:01:20.241Z,7.85
2023-01-12T13:03:46.972Z,6.88
2023-01-12T13:06:16.620Z,5.88
2023-01-12T13:08:43.673Z,12.85
2023-01-12T13:11:10.545Z,7.38
2023-01-12T13:13:38.655Z,11.93
2023-01-12T13:16:20.689Z,9.27
2023-01-12T13:18:50.441Z,7.40
2023-01-12T13:21:31.135Z,11.63
2023-01-12T13:24:10.062Z,12.07
2023-01-12T13:26:40.035Z,8.43
2023-01-12T13:29:27.657Z,11.35
2023-01-12T13:32:20.124Z,11.52
2023-01-12T13:34:46.926Z,9.13
2023-01-12T13:37:19.236Z,9.63
2023-01-12T13:40:12.088Z,8.18
2023-01-12T13:42:57.464Z,9.65
2023-01-12T13:45:24.822Z,13.05
2023-01-12T13:47:53.576Z,6.93
2023-01-12T13:50:24.036Z,8.75
2023-01-12T13:52:59.594Z,8.18
2023-01-12T13:55:31.504Z,5.53
2023-01-12T13:58:02.243Z,11.07
2023-01-12T14:00:32.329Z,10.40
2023-01-12T14:02:59.587Z,14.45
2023-01-12T14:05:53.577Z,8.98
2023-01-12T14:08:23.218Z,9.75
2023-01-12T14:10:59.777Z,6.82
2023-01-12T14:13:57.431Z,8.13
2023-01-12T14:16:42.739Z,12.57
2023-01-12T14:19:29.448Z,9.32
2023-01-12T14:21:58.562Z,10.27
2023-01-12T14:24:25.522Z,6.00
2023-01-12T14:26:52.205Z,9.20
2023-01-12T14:29:18.966Z,10.57
2023-01-12T14:31:52.147Z,5.40
2023-01-12T14:34:34.615Z,9.30
2023-01-12T14:37:27.386Z,6.45
2023-01-12T14:39:55.364Z,11.90
2023-01-12T14:42:41.113Z,7.05
2023-01-12T14:45:46.989Z,12.18
2023-01-12T14:48:20.776Z,4.20
2023-01-12T14:51:01.024Z,6.85
2023-01-12T14:53:42.377Z,4.88
2023-01-12T14:56:15.458Z,9.23
2023-01-12T14:58:42.945Z,9.20
2023-01-12T15:01:11.028Z,12.15
2023-01-12T15:03:43.780Z,14.50
2023-01-12T15:06:15.534Z,13.32
2023-01-12T15:08:53.808Z,12.73
2023-01-12T15:11:30.381Z,13.73
2023-01-12T15:13:58.797Z,11.43
2023-01-12T15:16:44.190Z,8.48
2023-01-12T15:19:29.813Z,5.70
2023-01-12T15:22:16.680Z,11.10
2023-01-12T15:25:02.028Z,10.93
2023-01-12T15:27:29.676Z,12.63
2023-01-12T15:29:56.506Z,5.43
2023-01-12T15:32:46.285Z,12.65
2023-01-12T15:35:21.487Z,6.30
2023-01-12T15:37:48.374Z,4.90
2023-01-12T15:40:15.755Z,7.70
2023-01-12T15:42:42.462Z,7.63
2023-01-12T15:45:17.634Z,6.63
2023-01-12T15:47:44.334Z,4.35
2023-01-12T15:50:11.141Z,6.85
2023-01-12T15:52:37.873Z,5.85
2023-01-12T15:55:05.413Z,6.30
2023-01-12T15:57:32.084Z,6.60
2023-01-12T15:59:58.733Z,9.13
2023-01-12T16:02:39.077Z,10.00
2023-01-12T16:05:06.573Z,9.70
2023-01-12T16:07:33.406Z,7.63
2023-01-12T16:10:00.077Z,6.13
2023-01-12T16:12:26.941Z,6.05
2023-01-12T16:14:53.644Z,8.15
2023-01-12T16:17:20.287Z,13.63
2023-01-12T16:19:47.088Z,12.27
2023-01-12T16:22:21.353Z,14.23
2023-01-12T16:24:49.295Z,11.63
2023-01-12T16:27:17.168Z,13.07
2023-01-12T16:29:44.247Z,15.68
2023-01-12T16:32:11.545Z,11.65
2023-01-12T16:34:39.092Z,17.73
2023-01-12T16:37:06.113Z,11.73
2023-01-12T16:39:32.815Z,8.07
2023-01-12T16:42:03.599Z,18.00
2023-01-12T16:44:37.836Z,18.50
2023-01-12T16:47:05.548Z,10.13
2023-01-12T16:49:35.942Z,8.50
2023-01-12T16:52:04.666Z,11.88
2023-01-12T16:54:31.506Z,8.57
2023-01-12T16:56:58.867Z,13.23
2023-01-12T16:59:26.740Z,11.00
2023-01-12T17:01:53.707Z,8.73
2023-01-12T17:04:20.870Z,6.35
2023-01-12T17:06:48.085Z,14.73
2023-01-12T17:09:15.971Z,10.52
2023-01-12T17:11:43.816Z,11.75
2023-01-12T17:14:24.580Z,7.55
2023-01-12T17:16:56.922Z,8.80
2023-01-12T17:19:26.253Z,11.65
2023-01-12T17:21:58.200Z,9.70
2023-01-12T17:24:25.512Z,11.30
2023-01-12T17:26:53.584Z,6.60
2023-01-12T17:29:20.919Z,9.80
2023-01-12T17:31:49.387Z,6.28
2023-01-12T17:34:16.423Z,8.90
2023-01-12T17:36:43.477Z,9.07
2023-01-12T17:39:10.216Z,9.05
2023-01-12T17:41:55.516Z,9.70
2023-01-12T17:44:22.275Z,7.10
2023-01-12T17:46:49.474Z,7.72
2023-01-12T17:49:16.310Z,5.45
2023-01-12T17:51:43.041Z,7.72
2023-01-12T17:54:12.318Z,9.65
2023-01-12T17:56:39.013Z,9.48
2023-01-12T17:59:06.522Z,8.32
2023-01-12T18:01:35.992Z,16.00
2023-01-12T18:04:03.732Z,9.77
2023-01-12T18:06:30.735Z,8.45
2023-01-12T18:08:59.532Z,8.32
2023-01-12T18:11:27.173Z,9.68
2023-01-12T18:13:54.080Z,6.38
2023-01-12T18:16:21.994Z,6.30
2023-01-12T18:18:49.722Z,11.52
2023-01-12T18:21:20.936Z,6.05
2023-01-12T18:23:49.678Z,6.43
2023-01-12T18:26:23.937Z,6.63
2023-01-12T18:28:51.559Z,9.15
2023-01-12T18:31:25.080Z,9.70
2023-01-12T18:33:55.152Z,5.97
2023-01-12T18:36:24.889Z,7.00
2023-01-12T18:38:53.786Z,8.70
2023-01-12T18:41:40.030Z,8.63
2023-01-12T18:44:07.344Z,7.75
2023-01-12T18:46:54.122Z,3.40
2023-01-12T18:49:21.954Z,7.75
2023-01-12T18:52:07.747Z,10.25
2023-01-12T18:54:53.368Z,7.28
2023-01-12T18:57:23.106Z,4.53
2023-01-12T18:59:53.497Z,8.00
2023-01-12T19:02:20.787Z,5.13
2023-01-12T19:04:51.616Z,9.45
2023-01-12T19:07:58.559Z,9.50
2023-01-12T19:10:26.200Z,7.47
2023-01-12T19:13:13.064Z,6.57
2023-01-12T19:15:59.876Z,6.20
2023-01-12T19:18:27.188Z,8.13
2023-01-12T19:21:13.961Z,9.55
2023-01-12T19:23:59.090Z,7.50
2023-01-12T19:26:44.493Z,5.05
2023-01-12T19:29:11.130Z,4.60
2023-01-12T19:31:37.794Z,8.77
2023-01-12T19:34:04.473Z,6.75
2023-01-12T19:36:31.147Z,9.45
2023-01-12T19:39:00.472Z,6.88
2023-01-12T19:41:45.888Z,7.72
2023-01-12T19:44:12.587Z,7.72
2023-01-12T19:46:39.429Z,8.30
2023-01-12T19:49:07.866Z,5.57
2023-01-12T19:51:34.569Z,4.38
2023-01-12T19:54:01.213Z,6.75
2023-01-12T19:56:27.875Z,5.07
2023-01-12T19:58:54.623Z,5.85
2023-01-12T20:01:22.984Z,7.80
2023-01-12T20:03:50.628Z,9.90
2023-01-12T20:06:17.970Z,5.05
2023-01-12T20:08:44.685Z,6.43
2023-01-12T20:11:11.503Z,6.63
2023-01-12T20:13:38.232Z,7.65
2023-01-12T20:16:10.742Z,4.72
2023-01-12T20:18:37.981Z,5.78
2023-01-12T20:21:09.398Z,8.30
2023-01-12T20:26:06.715Z,6.55
2023-01-12T20:28:33.761Z,6.88
2023-01-12T20:31:00.423Z,8.55
2023-01-12T20:33:28.335Z,5.90
2023-01-12T20:35:55.186Z,5.47
2023-01-12T20:38:22.651Z,4.70
2023-01-12T20:40:49.708Z,3.83
2023-01-12T20:43:16.427Z,5.32
2023-01-12T20:45:44.219Z,8.30
2023-01-12T20:48:15.405Z,9.10
2023-01-12T20:50:46.159Z,9.98
2023-01-12T20:53:13.488Z,4.10
2023-01-12T20:55:49.439Z,3.47
2023-01-12T20:58:16.858Z,2.90
2023-01-12T21:00:44.108Z,6.93
2023-01-12T21:03:10.814Z,6.68
2023-01-12T21:05:42.289Z,6.07
2023-01-12T21:10:37.006Z,4.43
2023-01-12T21:13:03.819Z,3.40
2023-01-12T21:15:30.491Z,6.10
2023-01-12T21:17:57.502Z,8.60
2023-01-12T21:20:24.511Z,5.25
2023-01-12T21:22:51.699Z,6.30
2023-01-12T21:25:18.436Z,3.08
2023-01-12T21:27:45.102Z,3.90
2023-01-12T21:30:12.539Z,6.25
2023-01-12T21:32:39.195Z,4.38
2023-01-12T21:35:06.272Z,4.32
2023-01-12T21:37:33.009Z,4.97
2023-01-12T21:39:59.652Z,7.13
2023-01-12T21:42:46.298Z,3.95
2023-01-12T21:45:12.978Z,2.78
2023-01-12T21:47:39.621Z,2.65
2023-01-12T21:50:06.548Z,6.63
2023-01-12T21:52:33.283Z,4.32
2023-01-12T21:55:00.157Z,3.20
2023-01-12T21:57:26.870Z,4.57
2023-01-12T21:59:53.590Z,2.70
2023-01-12T22:02:20.309Z,2.03
2023-01-12T22:04:46.951Z,4.65
2023-01-12T22:07:13.603Z,3.90
2023-01-12T22:09:40.445Z,1.80
2023-01-12T22:12:07.414Z,1.75
2023-01-12T22:14:34.069Z,4.40
2023-01-12T22:17:00.771Z,3.65
2023-01-12T22:19:27.400Z,4.90
2023-01-12T22:21:54.047Z,3.17
2023-01-12T22:24:20.740Z,5.50
2023-01-12T22:26:47.423Z,5.10
2023-01-12T22:29:14.226Z,6.63
2023-01-12T22:31:40.955Z,5.65
2023-01-12T22:34:08.097Z,8.73
2023-01-12T22:36:43.072Z,3.80
2023-01-12T22:39:11.836Z,4.55
2023-01-12T22:41:39.905Z,6.55
2023-01-12T22:44:06.585Z,4.57
2023-01-12T22:46:33.236Z,6.32
2023-01-12T22:49:00.046Z,4.55
2023-01-12T22:51:28.403Z,3.80
2023-01-12T22:53:56.188Z,6.20
2023-01-12T22:56:23.402Z,4.50
2023-01-12T22:58:52.301Z,5.60
2023-01-12T23:01:20.699Z,4.32
2023-01-12T23:03:50.705Z,5.22
2023-01-12T23:06:17.784Z,3.72
2023-01-12T23:08:44.946Z,3.78
2023-01-12T23:11:18.913Z,3.15
2023-01-12T23:13:46.414Z,3.17
2023-01-12T23:16:16.054Z,5.18
2023-01-12T23:18:44.438Z,2.63
2023-01-12T23:21:15.704Z,3.15
2023-01-12T23:23:49.039Z,4.90
2023-01-12T23:26:18.686Z,4.40
2023-01-12T23:28:48.483Z,3.28
2023-01-12T23:31:18.457Z,4.28
2023-01-12T23:33:45.388Z,4.78
2023-01-12T23:36:14.426Z,5.38
2023-01-12T23:38:41.722Z,5.15
2023-01-12T23:41:18.281Z,7.88
2023-01-12T23:43:46.133Z,4.72
2023-01-12T23:46:14.047Z,4.07
2023-01-12T23:48:41.257Z,8.43
2023-01-12T23:51:08.285Z,5.65
2023-01-12T23:53:35.795Z,5.18
2023-01-12T23:56:12.383Z,3.90
2023-01-12T23:58:39.151Z,4.75
